sensor_id;sensor_type;location;lat;lon;timestamp;pressure;altitude;pressure_sealevel;temperature;humidity
80321;BME280;69633;47.066;15.450;2024-01-30T00:02:21;99603.06;;;0.32;72.18
80321;BME280;69633;47.066;15.450;2024-01-30T00:04:46;99611.47;;;0.34;71.98
80321;BME280;69633;47.066;15.450;2024-01-30T00:07:13;99609.06;;;0.39;71.94
80321;BME280;69633;47.066;15.450;2024-01-30T00:09:38;99602.22;;;0.38;71.43
80321;BME280;69633;47.066;15.450;2024-01-30T00:12:06;99599.03;;;0.36;71.38
80321;BME280;69633;47.066;15.450;2024-01-30T00:14:31;99605.44;;;0.40;71.16
80321;BME280;69633;47.066;15.450;2024-01-30T00:16:57;99598.81;;;0.38;71.38
80321;BME280;69633;47.066;15.450;2024-01-30T00:19:22;99596.25;;;0.31;71.71
80321;BME280;69633;47.066;15.450;2024-01-30T00:21:49;99598.84;;;0.31;71.88
80321;BME280;69633;47.066;15.450;2024-01-30T00:24:16;99601.91;;;0.28;71.64
80321;BME280;69633;47.066;15.450;2024-01-30T00:26:41;99600.72;;;0.24;72.14
80321;BME280;69633;47.066;15.450;2024-01-30T00:29:06;99613.16;;;0.29;72.36
80321;BME280;69633;47.066;15.450;2024-01-30T00:31:33;99608.16;;;0.21;71.95
80321;BME280;69633;47.066;15.450;2024-01-30T00:34:00;99606.81;;;0.12;72.26
80321;BME280;69633;47.066;15.450;2024-01-30T00:36:25;99603.03;;;0.01;73.03
80321;BME280;69633;47.066;15.450;2024-01-30T00:38:51;99611.53;;;-0.10;74.17
80321;BME280;69633;47.066;15.450;2024-01-30T00:41:20;99606.13;;;-0.09;73.98
80321;BME280;69633;47.066;15.450;2024-01-30T00:43:45;99610.91;;;-0.06;73.96
80321;BME280;69633;47.066;15.450;2024-01-30T00:46:10;99616.53;;;-0.02;74.11
80321;BME280;69633;47.066;15.450;2024-01-30T00:48:36;99608.44;;;0.06;74.04
80321;BME280;69633;47.066;15.450;2024-01-30T00:51:01;99604.41;;;0.10;73.68
80321;BME280;69633;47.066;15.450;2024-01-30T00:53:27;99605.59;;;0.14;73.54
80321;BME280;69633;47.066;15.450;2024-01-30T00:55:52;99606.94;;;0.23;73.83
80321;BME280;69633;47.066;15.450;2024-01-30T00:58:18;99606.50;;;0.26;73.42
80321;BME280;69633;47.066;15.450;2024-01-30T01:00:44;99611.16;;;0.24;73.04
80321;BME280;69633;47.066;15.450;2024-01-30T01:03:10;99603.75;;;0.21;73.60
80321;BME280;69633;47.066;15.450;2024-01-30T01:05:35;99599.78;;;0.12;73.08
80321;BME280;69633;47.066;15.450;2024-01-30T01:08:02;99593.63;;;0.00;73.52
80321;BME280;69633;47.066;15.450;2024-01-30T01:10:27;99593.63;;;0.00;73.37
80321;BME280;69633;47.066;15.450;2024-01-30T01:12:53;99594.78;;;0.04;73.31
80321;BME280;69633;47.066;15.450;2024-01-30T01:15:19;99603.22;;;0.06;73.37
80321;BME280;69633;47.066;15.450;2024-01-30T01:17:47;99596.03;;;0.02;73.10
80321;BME280;69633;47.066;15.450;2024-01-30T01:20:13;99591.22;;;-0.02;73.17
80321;BME280;69633;47.066;15.450;2024-01-30T01:22:39;99596.44;;;-0.02;73.43
80321;BME280;69633;47.066;15.450;2024-01-30T01:25:06;99596.66;;;-0.03;73.51
80321;BME280;69633;47.066;15.450;2024-01-30T01:27:35;99591.03;;;0.00;73.04
80321;BME280;69633;47.066;15.450;2024-01-30T01:30:07;99583.97;;;0.07;72.90
80321;BME280;69633;47.066;15.450;2024-01-30T01:32:36;99588.53;;;0.12;72.92
80321;BME280;69633;47.066;15.450;2024-01-30T01:35:02;99587.16;;;0.09;72.29
80321;BME280;69633;47.066;15.450;2024-01-30T01:37:27;99581.16;;;0.02;72.96
80321;BME280;69633;47.066;15.450;2024-01-30T01:39:53;99583.59;;;0.04;72.57
80321;BME280;69633;47.066;15.450;2024-01-30T01:42:18;99583.53;;;0.10;73.23
80321;BME280;69633;47.066;15.450;2024-01-30T01:44:44;99581.34;;;0.07;72.21
80321;BME280;69633;47.066;15.450;2024-01-30T01:47:10;99582.16;;;0.01;72.43
80321;BME280;69633;47.066;15.450;2024-01-30T01:49:38;99579.94;;;0.05;72.49
80321;BME280;69633;47.066;15.450;2024-01-30T01:52:04;99583.34;;;0.05;72.29
80321;BME280;69633;47.066;15.450;2024-01-30T01:54:30;99581.16;;;0.02;72.66
80321;BME280;69633;47.066;15.450;2024-01-30T01:56:56;99580.03;;;-0.09;72.62
80321;BME280;69633;47.066;15.450;2024-01-30T01:59:22;99592.09;;;-0.14;72.98
80321;BME280;69633;47.066;15.450;2024-01-30T02:01:48;99586.84;;;-0.08;72.82
80321;BME280;69633;47.066;15.450;2024-01-30T02:04:16;99584.97;;;0.06;75.41
80321;BME280;69633;47.066;15.450;2024-01-30T02:06:43;99578.69;;;0.14;72.46
80321;BME280;69633;47.066;15.450;2024-01-30T02:09:10;99581.50;;;0.12;72.21
80321;BME280;69633;47.066;15.450;2024-01-30T02:11:35;99581.94;;;0.09;72.29
80321;BME280;69633;47.066;15.450;2024-01-30T02:14:04;99576.53;;;0.04;72.72
80321;BME280;69633;47.066;15.450;2024-01-30T02:16:33;99576.53;;;0.04;72.83
80321;BME280;69633;47.066;15.450;2024-01-30T02:18:58;99590.59;;;0.03;72.68
80321;BME280;69633;47.066;15.450;2024-01-30T02:21:24;99582.03;;;-0.04;72.98
80321;BME280;69633;47.066;15.450;2024-01-30T02:23:50;99580.66;;;-0.13;72.68
80321;BME280;69633;47.066;15.450;2024-01-30T02:26:16;99581.50;;;-0.19;73.25
80321;BME280;69633;47.066;15.450;2024-01-30T02:28:41;99578.28;;;-0.21;73.50
80321;BME280;69633;47.066;15.450;2024-01-30T02:31:07;99579.50;;;-0.24;73.86
80321;BME280;69633;47.066;15.450;2024-01-30T02:33:32;99577.91;;;-0.25;73.54
80321;BME280;69633;47.066;15.450;2024-01-30T02:35:58;99571.28;;;-0.27;73.61
80321;BME280;69633;47.066;15.450;2024-01-30T02:38:24;99578.94;;;-0.32;74.20
80321;BME280;69633;47.066;15.450;2024-01-30T02:40:52;99576.53;;;-0.34;74.18
80321;BME280;69633;47.066;15.450;2024-01-30T02:43:17;99571.72;;;-0.37;74.00
80321;BME280;69633;47.066;15.450;2024-01-30T02:45:44;99576.56;;;-0.40;74.77
80321;BME280;69633;47.066;15.450;2024-01-30T02:48:09;99573.38;;;-0.42;75.01
80321;BME280;69633;47.066;15.450;2024-01-30T02:50:34;99579.38;;;-0.42;75.51
80321;BME280;69633;47.066;15.450;2024-01-30T02:53:01;99573.72;;;-0.32;74.68
80321;BME280;69633;47.066;15.450;2024-01-30T02:55:28;99579.78;;;-0.38;75.12
80321;BME280;69633;47.066;15.450;2024-01-30T02:57:54;99586.19;;;-0.41;75.21
80321;BME280;69633;47.066;15.450;2024-01-30T03:00:21;99578.59;;;-0.42;75.19
80321;BME280;69633;47.066;15.450;2024-01-30T03:02:48;99569.34;;;-0.38;75.36
80321;BME280;69633;47.066;15.450;2024-01-30T03:05:13;99576.56;;;-0.40;75.01
80321;BME280;69633;47.066;15.450;2024-01-30T03:07:39;99567.34;;;-0.43;75.84
80321;BME280;69633;47.066;15.450;2024-01-30T03:10:05;99566.53;;;-0.43;75.49
80321;BME280;69633;47.066;15.450;2024-01-30T03:12:32;99566.34;;;-0.42;75.49
80321;BME280;69633;47.066;15.450;2024-01-30T03:14:58;99560.31;;;-0.42;75.73
80321;BME280;69633;47.066;15.450;2024-01-30T03:17:23;99567.72;;;-0.39;75.39
80321;BME280;69633;47.066;15.450;2024-01-30T03:19:51;99568.31;;;-0.37;75.04
80321;BME280;69633;47.066;15.450;2024-01-30T03:22:18;99572.72;;;-0.31;75.08
80321;BME280;69633;47.066;15.450;2024-01-30T03:24:43;99568.50;;;-0.32;74.59
80321;BME280;69633;47.066;15.450;2024-01-30T03:27:09;99565.72;;;-0.44;74.68
80321;BME280;69633;47.066;15.450;2024-01-30T03:29:35;99562.31;;;-0.44;75.22
80321;BME280;69633;47.066;15.450;2024-01-30T03:32:01;99556.53;;;-0.46;75.20
80321;BME280;69633;47.066;15.450;2024-01-30T03:34:26;99555.75;;;-0.54;75.58
80321;BME280;69633;47.066;15.450;2024-01-30T03:36:52;99558.16;;;-0.59;75.11
80321;BME280;69633;47.066;15.450;2024-01-30T03:39:22;99553.78;;;-0.65;75.62
80321;BME280;69633;47.066;15.450;2024-01-30T03:41:47;99556.19;;;-0.63;75.36
80321;BME280;69633;47.066;15.450;2024-01-30T03:44:13;99556.78;;;-0.61;76.03
80321;BME280;69633;47.066;15.450;2024-01-30T03:46:39;99559.78;;;-0.58;75.60
80321;BME280;69633;47.066;15.450;2024-01-30T03:49:05;99560.13;;;-0.47;75.75
80321;BME280;69633;47.066;15.450;2024-01-30T03:51:30;99562.97;;;-0.56;75.16
80321;BME280;69633;47.066;15.450;2024-01-30T03:53:56;99564.22;;;-0.65;74.91
80321;BME280;69633;47.066;15.450;2024-01-30T03:56:21;99564.25;;;-0.71;74.77
80321;BME280;69633;47.066;15.450;2024-01-30T03:58:46;99562.66;;;-0.79;74.79
80321;BME280;69633;47.066;15.450;2024-01-30T04:01:15;99563.44;;;-0.72;76.44
80321;BME280;69633;47.066;15.450;2024-01-30T04:03:41;99563.84;;;-0.75;75.25
80321;BME280;69633;47.066;15.450;2024-01-30T04:06:13;99559.44;;;-0.68;75.51
80321;BME280;69633;47.066;15.450;2024-01-30T04:08:38;99564.59;;;-0.61;74.71
80321;BME280;69633;47.066;15.450;2024-01-30T04:11:05;99566.41;;;-0.62;74.68
80321;BME280;69633;47.066;15.450;2024-01-30T04:13:33;99561.19;;;-0.62;74.59
80321;BME280;69633;47.066;15.450;2024-01-30T04:16:19;99565.44;;;-0.74;74.57
80321;BME280;69633;47.066;15.450;2024-01-30T04:18:46;99560.66;;;-0.77;75.79
80321;BME280;69633;47.066;15.450;2024-01-30T04:21:12;99561.81;;;-0.66;74.32
80321;BME280;69633;47.066;15.450;2024-01-30T04:23:39;99562.84;;;-0.74;74.47
80321;BME280;69633;47.066;15.450;2024-01-30T04:26:05;99567.88;;;-0.79;74.16
80321;BME280;69633;47.066;15.450;2024-01-30T04:28:30;99559.88;;;-0.90;74.08
80321;BME280;69633;47.066;15.450;2024-01-30T04:30:56;99570.13;;;-1.02;74.32
80321;BME280;69633;47.066;15.450;2024-01-30T04:33:23;99575.97;;;-1.13;74.45
80321;BME280;69633;47.066;15.450;2024-01-30T04:35:49;99571.56;;;-1.13;74.99
80321;BME280;69633;47.066;15.450;2024-01-30T04:38:16;99569.34;;;-1.09;74.97
80321;BME280;69633;47.066;15.450;2024-01-30T04:40:42;99571.72;;;-1.08;74.81
80321;BME280;69633;47.066;15.450;2024-01-30T04:43:09;99571.53;;;-1.06;74.38
80321;BME280;69633;47.066;15.450;2024-01-30T04:45:35;99572.13;;;-1.04;74.80
80321;BME280;69633;47.066;15.450;2024-01-30T04:48:00;99571.53;;;-1.06;75.46
80321;BME280;69633;47.066;15.450;2024-01-30T04:50:26;99573.94;;;-1.11;75.35
80321;BME280;69633;47.066;15.450;2024-01-30T04:52:52;99576.34;;;-1.16;74.96
80321;BME280;69633;47.066;15.450;2024-01-30T04:55:18;99574.75;;;-1.17;75.11
80321;BME280;69633;47.066;15.450;2024-01-30T04:57:43;99575.94;;;-1.20;75.14
80321;BME280;69633;47.066;15.450;2024-01-30T05:00:10;99571.53;;;-1.19;75.42
80321;BME280;69633;47.066;15.450;2024-01-30T05:02:36;99567.53;;;-1.15;75.19
80321;BME280;69633;47.066;15.450;2024-01-30T05:05:02;99569.16;;;-1.14;74.68
80321;BME280;69633;47.066;15.450;2024-01-30T05:07:28;99567.53;;;-1.09;75.99
80321;BME280;69633;47.066;15.450;2024-01-30T05:09:54;99564.13;;;-1.03;74.20
80321;BME280;69633;47.066;15.450;2024-01-30T05:12:19;99567.94;;;-1.18;74.36
80321;BME280;69633;47.066;15.450;2024-01-30T05:14:45;99570.75;;;-1.26;75.12
80321;BME280;69633;47.066;15.450;2024-01-30T05:17:10;99571.75;;;-1.27;74.43
80321;BME280;69633;47.066;15.450;2024-01-30T05:19:38;99576.56;;;-1.24;74.34
80321;BME280;69633;47.066;15.450;2024-01-30T05:22:04;99581.56;;;-1.29;74.94
80321;BME280;69633;47.066;15.450;2024-01-30T05:24:30;99580.75;;;-1.23;74.41
80321;BME280;69633;47.066;15.450;2024-01-30T05:26:56;99591.97;;;-1.16;74.54
80321;BME280;69633;47.066;15.450;2024-01-30T05:29:23;99581.97;;;-1.19;74.71
80321;BME280;69633;47.066;15.450;2024-01-30T05:31:49;99583.56;;;-1.18;74.01
80321;BME280;69633;47.066;15.450;2024-01-30T05:34:16;99581.56;;;-1.23;74.40
80321;BME280;69633;47.066;15.450;2024-01-30T05:36:42;99584.78;;;-1.34;74.79
80321;BME280;69633;47.066;15.450;2024-01-30T05:39:08;99583.38;;;-1.36;74.79
80321;BME280;69633;47.066;15.450;2024-01-30T05:41:34;99590.00;;;-1.40;75.31
80321;BME280;69633;47.066;15.450;2024-01-30T05:44:00;99587.56;;;-1.42;75.68
80321;BME280;69633;47.066;15.450;2024-01-30T05:46:25;99588.38;;;-1.41;75.47
80321;BME280;69633;47.066;15.450;2024-01-30T05:48:51;99588.78;;;-1.38;75.30
80321;BME280;69633;47.066;15.450;2024-01-30T05:51:17;99578.75;;;-1.34;75.46
80321;BME280;69633;47.066;15.450;2024-01-30T05:53:42;99581.19;;;-1.33;75.46
80321;BME280;69633;47.066;15.450;2024-01-30T05:56:08;99579.78;;;-1.35;74.74
80321;BME280;69633;47.066;15.450;2024-01-30T05:58:33;99584.78;;;-1.40;75.66
80321;BME280;69633;47.066;15.450;2024-01-30T06:00:59;99578.19;;;-1.36;75.20
80321;BME280;69633;47.066;15.450;2024-01-30T06:03:24;99576.16;;;-1.41;75.58
80321;BME280;69633;47.066;15.450;2024-01-30T06:05:50;99585.19;;;-1.50;75.79
80321;BME280;69633;47.066;15.450;2024-01-30T06:08:15;99578.97;;;-1.49;75.20
80321;BME280;69633;47.066;15.450;2024-01-30T06:10:40;99580.59;;;-1.48;76.24
80321;BME280;69633;47.066;15.450;2024-01-30T06:13:06;99573.16;;;-1.38;76.07
80321;BME280;69633;47.066;15.450;2024-01-30T06:15:33;99580.56;;;-1.35;75.28
80321;BME280;69633;47.066;15.450;2024-01-30T06:18:00;99578.75;;;-1.34;74.98
80321;BME280;69633;47.066;15.450;2024-01-30T06:20:25;99580.97;;;-1.38;75.44
80321;BME280;69633;47.066;15.450;2024-01-30T06:22:52;99581.78;;;-1.37;75.85
80321;BME280;69633;47.066;15.450;2024-01-30T06:25:18;99575.78;;;-1.31;75.71
80321;BME280;69633;47.066;15.450;2024-01-30T06:27:44;99586.59;;;-1.21;74.83
80321;BME280;69633;47.066;15.450;2024-01-30T06:30:11;99575.56;;;-1.23;74.39
80321;BME280;69633;47.066;15.450;2024-01-30T06:32:38;99577.56;;;-1.25;75.59
80321;BME280;69633;47.066;15.450;2024-01-30T06:35:04;99576.38;;;-1.29;75.43
80321;BME280;69633;47.066;15.450;2024-01-30T06:37:31;99573.19;;;-1.31;74.77
80321;BME280;69633;47.066;15.450;2024-01-30T06:39:56;99576.78;;;-1.32;75.44
80321;BME280;69633;47.066;15.450;2024-01-30T06:42:21;99576.97;;;-1.27;75.84
80321;BME280;69633;47.066;15.450;2024-01-30T06:44:49;99577.16;;;-1.22;75.36
80321;BME280;69633;47.066;15.450;2024-01-30T06:47:15;99576.56;;;-1.18;74.67
80321;BME280;69633;47.066;15.450;2024-01-30T06:49:41;99580.97;;;-1.12;74.18
80321;BME280;69633;47.066;15.450;2024-01-30T06:52:10;99588.78;;;-1.18;74.19
80321;BME280;69633;47.066;15.450;2024-01-30T06:54:36;99583.97;;;-1.21;74.53
80321;BME280;69633;47.066;15.450;2024-01-30T06:57:03;99583.38;;;-1.23;75.05
80321;BME280;69633;47.066;15.450;2024-01-30T06:59:31;99593.59;;;-1.15;74.62
80321;BME280;69633;47.066;15.450;2024-01-30T07:01:57;99587.97;;;-1.06;74.90
80321;BME280;69633;47.066;15.450;2024-01-30T07:04:23;99591.16;;;-1.04;74.96
80321;BME280;69633;47.066;15.450;2024-01-30T07:06:48;99587.97;;;-0.99;75.16
80321;BME280;69633;47.066;15.450;2024-01-30T07:09:14;99591.16;;;-0.97;75.21
80321;BME280;69633;47.066;15.450;2024-01-30T07:11:39;99585.75;;;-0.95;74.79
80321;BME280;69633;47.066;15.450;2024-01-30T07:14:05;99594.34;;;-0.82;74.44
80321;BME280;69633;47.066;15.450;2024-01-30T07:16:31;99586.72;;;-0.90;74.57
80321;BME280;69633;47.066;15.450;2024-01-30T07:18:57;99584.72;;;-0.88;75.11
80321;BME280;69633;47.066;15.450;2024-01-30T07:21:22;99589.91;;;-0.75;75.03
80321;BME280;69633;47.066;15.450;2024-01-30T07:23:59;99592.28;;;-0.67;74.47
80321;BME280;69633;47.066;15.450;2024-01-30T07:26:24;99592.28;;;-0.67;74.73
80321;BME280;69633;47.066;15.450;2024-01-30T07:28:49;99589.50;;;-0.65;74.36
80321;BME280;69633;47.066;15.450;2024-01-30T07:31:15;99594.25;;;-0.56;74.44
80321;BME280;69633;47.066;15.450;2024-01-30T07:33:41;99593.03;;;-0.46;74.62
80321;BME280;69633;47.066;15.450;2024-01-30T07:36:06;99600.00;;;-0.27;73.59
80321;BME280;69633;47.066;15.450;2024-01-30T07:38:32;99601.75;;;-0.21;73.50
80321;BME280;69633;47.066;15.450;2024-01-30T07:40:58;99596.50;;;-0.15;72.63
80321;BME280;69633;47.066;15.450;2024-01-30T07:43:24;99610.53;;;-0.09;72.21
80321;BME280;69633;47.066;15.450;2024-01-30T07:45:50;99604.91;;;-0.06;72.30
80321;BME280;69633;47.066;15.450;2024-01-30T07:48:17;99604.13;;;-0.13;72.19
80321;BME280;69633;47.066;15.450;2024-01-30T07:50:44;99608.41;;;-0.25;71.93
80321;BME280;69633;47.066;15.450;2024-01-30T07:53:10;99606.97;;;-0.21;72.80
80321;BME280;69633;47.066;15.450;2024-01-30T07:55:46;99601.41;;;-0.31;72.70
80321;BME280;69633;47.066;15.450;2024-01-30T07:58:13;99608.84;;;-0.35;72.52
80321;BME280;69633;47.066;15.450;2024-01-30T08:00:39;99601.75;;;-0.21;72.28
80321;BME280;69633;47.066;15.450;2024-01-30T08:03:04;99601.72;;;-0.15;71.67
80321;BME280;69633;47.066;15.450;2024-01-30T08:05:31;99595.44;;;-0.01;71.72
80321;BME280;69633;47.066;15.450;2024-01-30T08:07:56;99604.78;;;0.14;71.24
80321;BME280;69633;47.066;15.450;2024-01-30T08:10:22;99604.41;;;0.10;71.75
80321;BME280;69633;47.066;15.450;2024-01-30T08:12:47;99605.22;;;0.11;71.73
80321;BME280;69633;47.066;15.450;2024-01-30T08:15:13;99603.56;;;0.16;71.31
80321;BME280;69633;47.066;15.450;2024-01-30T08:17:39;99607.13;;;0.28;71.44
80321;BME280;69633;47.066;15.450;2024-01-30T08:20:06;99605.94;;;0.56;70.38
80321;BME280;69633;47.066;15.450;2024-01-30T08:22:33;99618.31;;;0.67;70.01
80321;BME280;69633;47.066;15.450;2024-01-30T08:24:59;99605.56;;;0.77;69.84
80321;BME280;69633;47.066;15.450;2024-01-30T08:27:29;99618.78;;;0.82;69.58
80321;BME280;69633;47.066;15.450;2024-01-30T08:29:54;99608.09;;;0.83;68.87
80321;BME280;69633;47.066;15.450;2024-01-30T08:32:19;99613.56;;;0.82;69.24
80321;BME280;69633;47.066;15.450;2024-01-30T08:34:45;99601.00;;;0.90;68.43
80321;BME280;69633;47.066;15.450;2024-01-30T08:37:12;99607.72;;;1.05;68.43
80321;BME280;69633;47.066;15.450;2024-01-30T08:39:38;99598.31;;;1.22;68.62
80321;BME280;69633;47.066;15.450;2024-01-30T08:42:04;99601.53;;;1.42;68.00
80321;BME280;69633;47.066;15.450;2024-01-30T08:44:30;99602.44;;;1.48;67.54
80321;BME280;69633;47.066;15.450;2024-01-30T08:46:58;99595.47;;;1.60;66.92
80321;BME280;69633;47.066;15.450;2024-01-30T08:49:24;99588.91;;;1.69;66.60
80321;BME280;69633;47.066;15.450;2024-01-30T08:51:49;99585.13;;;1.83;66.17
80321;BME280;69633;47.066;15.450;2024-01-30T08:54:15;99588.81;;;1.93;65.98
80321;BME280;69633;47.066;15.450;2024-01-30T08:56:41;99589.88;;;2.04;65.05
80321;BME280;69633;47.066;15.450;2024-01-30T08:59:07;99585.16;;;2.24;64.57
80321;BME280;69633;47.066;15.450;2024-01-30T09:01:33;99588.16;;;2.39;64.02
80321;BME280;69633;47.066;15.450;2024-01-30T09:04:00;99589.09;;;2.57;63.49
80321;BME280;69633;47.066;15.450;2024-01-30T09:06:25;99581.13;;;2.63;62.91
80321;BME280;69633;47.066;15.450;2024-01-30T09:08:53;99583.31;;;2.78;62.54
80321;BME280;69633;47.066;15.450;2024-01-30T09:11:19;99578.31;;;2.88;61.33
80321;BME280;69633;47.066;15.450;2024-01-30T09:13:44;99578.88;;;3.02;60.64
80321;BME280;69633;47.066;15.450;2024-01-30T09:16:11;99576.38;;;3.18;60.60
80321;BME280;69633;47.066;15.450;2024-01-30T09:18:36;99578.97;;;3.18;60.50
80321;BME280;69633;47.066;15.450;2024-01-30T09:21:02;99571.44;;;3.33;60.49
80321;BME280;69633;47.066;15.450;2024-01-30T09:23:28;99568.31;;;3.48;59.63
80321;BME280;69633;47.066;15.450;2024-01-30T09:25:53;99572.31;;;3.51;59.59
80321;BME280;69633;47.066;15.450;2024-01-30T09:28:19;99576.72;;;3.62;59.16
80321;BME280;69633;47.066;15.450;2024-01-30T09:30:46;99578.88;;;3.65;59.14
80321;BME280;69633;47.066;15.450;2024-01-30T09:33:11;99574.63;;;3.75;58.70
80321;BME280;69633;47.066;15.450;2024-01-30T09:35:37;99575.72;;;3.91;58.24
80321;BME280;69633;47.066;15.450;2024-01-30T09:38:03;99564.19;;;3.92;58.89
80321;BME280;69633;47.066;15.450;2024-01-30T09:40:28;99570.69;;;3.89;58.71
80321;BME280;69633;47.066;15.450;2024-01-30T09:42:54;99559.75;;;4.09;58.41
80321;BME280;69633;47.066;15.450;2024-01-30T09:45:24;99562.25;;;4.32;57.45
80321;BME280;69633;47.066;15.450;2024-01-30T09:47:50;99561.53;;;4.37;56.84
80321;BME280;69633;47.066;15.450;2024-01-30T09:50:16;99564.00;;;4.44;56.73
80321;BME280;69633;47.066;15.450;2024-01-30T09:52:45;99562.50;;;4.48;56.49
80321;BME280;69633;47.066;15.450;2024-01-30T09:55:13;99556.28;;;4.54;56.65
80321;BME280;69633;47.066;15.450;2024-01-30T09:57:39;99557.63;;;4.73;56.32
80321;BME280;69633;47.066;15.450;2024-01-30T10:00:08;99563.69;;;4.73;56.31
80321;BME280;69633;47.066;15.450;2024-01-30T10:02:34;99555.31;;;4.93;55.64
80321;BME280;69633;47.066;15.450;2024-01-30T10:05:00;99555.28;;;5.10;55.27
80321;BME280;69633;47.066;15.450;2024-01-30T10:07:26;99550.66;;;5.17;55.11
80321;BME280;69633;47.066;15.450;2024-01-30T10:09:53;99550.47;;;5.23;54.88
80321;BME280;69633;47.066;15.450;2024-01-30T10:12:19;99548.44;;;5.30;54.91
80321;BME280;69633;47.066;15.450;2024-01-30T10:14:46;99547.91;;;5.28;55.07
80321;BME280;69633;47.066;15.450;2024-01-30T10:17:12;99549.63;;;5.40;54.43
80321;BME280;69633;47.066;15.450;2024-01-30T10:19:40;99549.16;;;5.48;54.23
80321;BME280;69633;47.066;15.450;2024-01-30T10:22:06;99546.53;;;5.48;54.40
80321;BME280;69633;47.066;15.450;2024-01-30T10:24:36;99531.81;;;5.47;54.23
80321;BME280;69633;47.066;15.450;2024-01-30T10:27:02;99529.59;;;5.39;54.51
80321;BME280;69633;47.066;15.450;2024-01-30T10:29:28;99537.53;;;5.65;54.54
80321;BME280;69633;47.066;15.450;2024-01-30T10:32:01;99525.78;;;5.73;54.34
80321;BME280;69633;47.066;15.450;2024-01-30T10:34:27;99517.59;;;5.96;53.45
80321;BME280;69633;47.066;15.450;2024-01-30T10:37:07;99514.03;;;5.85;53.70
80321;BME280;69633;47.066;15.450;2024-01-30T10:39:41;99512.31;;;5.96;52.96
80321;BME280;69633;47.066;15.450;2024-01-30T10:42:15;99510.13;;;6.15;53.05
80321;BME280;69633;47.066;15.450;2024-01-30T10:47:18;99505.56;;;6.05;53.37
80321;BME280;69633;47.066;15.450;2024-01-30T10:49:47;99500.59;;;6.09;52.71
80321;BME280;69633;47.066;15.450;2024-01-30T10:52:13;99495.00;;;6.05;52.97
80321;BME280;69633;47.066;15.450;2024-01-30T10:54:40;99495.50;;;6.29;53.08
80321;BME280;69633;47.066;15.450;2024-01-30T10:57:06;99497.69;;;6.42;51.84
80321;BME280;69633;47.066;15.450;2024-01-30T10:59:32;99492.69;;;6.46;52.25
80321;BME280;69633;47.066;15.450;2024-01-30T11:01:59;99490.56;;;6.43;52.72
80321;BME280;69633;47.066;15.450;2024-01-30T11:04:26;99482.72;;;6.53;51.98
80321;BME280;69633;47.066;15.450;2024-01-30T11:06:52;99474.91;;;6.68;52.14
80321;BME280;69633;47.066;15.450;2024-01-30T11:09:20;99476.97;;;6.61;51.72
80321;BME280;69633;47.066;15.450;2024-01-30T11:11:57;99467.47;;;6.60;51.67
80321;BME280;69633;47.066;15.450;2024-01-30T11:14:29;99476.97;;;6.56;52.18
80321;BME280;69633;47.066;15.450;2024-01-30T11:16:59;99461.59;;;6.48;52.42
80321;BME280;69633;47.066;15.450;2024-01-30T11:19:26;99470.03;;;6.50;52.32
80321;BME280;69633;47.066;15.450;2024-01-30T11:21:53;99462.47;;;6.58;52.11
80321;BME280;69633;47.066;15.450;2024-01-30T11:24:20;99459.50;;;6.50;52.04
80321;BME280;69633;47.066;15.450;2024-01-30T11:26:49;99457.97;;;6.59;52.61
80321;BME280;69633;47.066;15.450;2024-01-30T11:29:18;99450.66;;;6.71;51.65
80321;BME280;69633;47.066;15.450;2024-01-30T11:31:59;99452.50;;;6.70;51.29
80321;BME280;69633;47.066;15.450;2024-01-30T11:34:25;99445.25;;;6.51;52.04
80321;BME280;69633;47.066;15.450;2024-01-30T11:36:59;99447.91;;;6.51;52.45
80321;BME280;69633;47.066;15.450;2024-01-30T11:39:29;99444.25;;;6.57;51.81
80321;BME280;69633;47.066;15.450;2024-01-30T11:41:55;99441.88;;;6.60;52.54
80321;BME280;69633;47.066;15.450;2024-01-30T11:44:22;99437.41;;;6.61;52.25
80321;BME280;69633;47.066;15.450;2024-01-30T11:46:50;99441.16;;;6.75;52.04
80321;BME280;69633;47.066;15.450;2024-01-30T11:49:17;99438.13;;;6.93;51.97
80321;BME280;69633;47.066;15.450;2024-01-30T11:51:45;99432.88;;;7.03;51.18
80321;BME280;69633;47.066;15.450;2024-01-30T11:54:12;99421.72;;;6.91;51.53
80321;BME280;69633;47.066;15.450;2024-01-30T11:56:37;99423.38;;;7.07;51.31
80321;BME280;69633;47.066;15.450;2024-01-30T11:59:04;99416.78;;;7.10;50.28
80321;BME280;69633;47.066;15.450;2024-01-30T12:01:31;99415.47;;;7.12;51.64
80321;BME280;69633;47.066;15.450;2024-01-30T12:03:58;99411.34;;;7.42;49.42
80321;BME280;69633;47.066;15.450;2024-01-30T12:06:24;99422.44;;;7.54;49.50
80321;BME280;69633;47.066;15.450;2024-01-30T12:09:00;99415.06;;;7.71;49.57
80321;BME280;69633;47.066;15.450;2024-01-30T12:11:27;99415.59;;;7.93;48.93
80321;BME280;69633;47.066;15.450;2024-01-30T12:13:56;99406.88;;;7.98;48.28
80321;BME280;69633;47.066;15.450;2024-01-30T12:16:22;99403.72;;;7.86;48.45
80321;BME280;69633;47.066;15.450;2024-01-30T12:18:48;99399.75;;;7.68;48.81
80321;BME280;69633;47.066;15.450;2024-01-30T12:21:17;99398.16;;;7.92;48.85
80321;BME280;69633;47.066;15.450;2024-01-30T12:23:43;99392.34;;;8.05;48.46
80321;BME280;69633;47.066;15.450;2024-01-30T12:26:10;99394.44;;;8.34;47.39
80321;BME280;69633;47.066;15.450;2024-01-30T12:28:36;99388.03;;;8.55;46.72
80321;BME280;69633;47.066;15.450;2024-01-30T12:31:06;99394.91;;;8.61;46.35
80321;BME280;69633;47.066;15.450;2024-01-30T12:33:33;99396.75;;;8.65;46.27
80321;BME280;69633;47.066;15.450;2024-01-30T12:36:04;99390.63;;;8.75;45.51
80321;BME280;69633;47.066;15.450;2024-01-30T12:38:30;99381.63;;;8.76;46.04
80321;BME280;69633;47.066;15.450;2024-01-30T12:40:55;99384.22;;;8.91;45.78
80321;BME280;69633;47.066;15.450;2024-01-30T12:43:22;99384.75;;;8.88;45.83
80321;BME280;69633;47.066;15.450;2024-01-30T12:45:48;99374.13;;;8.93;45.55
80321;BME280;69633;47.066;15.450;2024-01-30T12:48:13;99378.78;;;9.11;45.50
80321;BME280;69633;47.066;15.450;2024-01-30T12:50:39;99381.91;;;9.23;44.77
80321;BME280;69633;47.066;15.450;2024-01-30T12:53:04;99367.78;;;10.06;43.64
80321;BME280;69633;47.066;15.450;2024-01-30T12:55:31;99361.31;;;10.46;42.47